Time;durP1;ratioP1;P1;durP2;ratioP2;P2;SDS_P1;SDS_P2;PMS_P1;PMS_P2;Temp;Humidity;BMP_temperature;BMP_pressure;BME280_temperature;BME280_humidity;BME280_pressure;Samples;Min_cycle;Max_cycle;Signal;HPM_P1;HPM_P2
2023/05/11 00:00:02;;;;;;;15.77;10.97;;;15.30;99.90;;;;;;5059486;28;20242;-35
2023/05/11 00:02:34;;;;;;;17.77;11.10;;;15.30;99.90;;;;;;5043010;28;20220;-35
2023/05/11 00:05:02;;;;;;;16.13;10.80;;;15.20;99.90;;;;;;5044447;28;20216;-35
2023/05/11 00:07:29;;;;;;;17.73;11.23;;;15.20;99.90;;;;;;5042736;28;20216;-35
2023/05/11 00:10:01;;;;;;;13.07;9.67;;;15.20;99.90;;;;;;5044369;28;20295;-35
2023/05/11 00:12:29;;;;;;;13.03;8.93;;;15.20;99.90;;;;;;5044167;28;20323;-36
2023/05/11 00:14:56;;;;;;;12.77;8.53;;;15.20;99.90;;;;;;5041891;28;20722;-36
2023/05/11 00:17:25;;;;;;;11.20;8.63;;;15.20;99.90;;;;;;5043021;28;20232;-36
2023/05/11 00:19:52;;;;;;;11.20;8.23;;;15.20;99.90;;;;;;5046443;28;20203;-36
2023/05/11 00:22:20;;;;;;;9.77;7.90;;;15.20;99.90;;;;;;5050922;28;20216;-36
2023/05/11 00:24:49;;;;;;;11.90;7.83;;;15.10;99.90;;;;;;5051018;28;20210;-36
2023/05/11 00:27:16;;;;;;;11.40;7.88;;;15.20;99.90;;;;;;5049274;28;20330;-36
2023/05/11 00:29:46;;;;;;;10.77;7.47;;;15.10;99.90;;;;;;5033464;28;20227;-36
2023/05/11 00:32:13;;;;;;;10.23;6.83;;;15.10;99.90;;;;;;5049967;28;20328;-36
2023/05/11 00:34:40;;;;;;;12.47;7.40;;;15.10;99.90;;;;;;5049200;28;20741;-36
2023/05/11 00:37:09;;;;;;;12.77;7.07;;;15.10;99.90;;;;;;5049393;28;20601;-36
2023/05/11 00:39:39;;;;;;;10.67;7.60;;;15.00;99.90;;;;;;5051308;28;20204;-36
2023/05/11 00:42:10;;;;;;;12.02;7.35;;;15.00;99.90;;;;;;5049552;28;20200;-36
2023/05/11 00:44:37;;;;;;;13.40;7.70;;;15.00;99.90;;;;;;5051520;28;20196;-36
2023/05/11 00:47:09;;;;;;;11.70;7.30;;;14.90;99.90;;;;;;5032109;28;20203;-36
2023/05/11 00:49:37;;;;;;;10.00;7.33;;;15.00;99.90;;;;;;5049237;28;20622;-36
2023/05/11 00:52:05;;;;;;;11.73;6.67;;;14.90;99.90;;;;;;5051213;28;20625;-36
2023/05/11 00:54:32;;;;;;;10.47;6.90;;;14.90;99.90;;;;;;5049363;28;20712;-36
2023/05/11 00:57:02;;;;;;;8.83;7.10;;;14.90;99.90;;;;;;5049227;28;20232;-35
2023/05/11 00:59:37;;;;;;;9.43;7.40;;;14.90;99.90;;;;;;5033745;28;20248;-36
2023/05/11 01:02:04;;;;;;;10.03;7.60;;;14.90;99.90;;;;;;5032496;28;20203;-36
2023/05/11 01:04:34;;;;;;;12.20;6.97;;;14.90;99.90;;;;;;5037269;28;20226;-34
2023/05/11 01:07:11;;;;;;;9.23;6.97;;;14.90;99.90;;;;;;5042681;28;20198;-33
2023/05/11 01:09:47;;;;;;;9.17;6.80;;;14.80;99.90;;;;;;5046706;28;20739;-33
2023/05/11 01:12:52;;;;;;;9.53;6.87;;;14.80;99.90;;;;;;5049482;28;20283;-35
2023/05/11 01:15:51;;;;;;;7.80;6.20;;;14.80;99.90;;;;;;5044594;28;20220;-35
2023/05/11 01:18:27;;;;;;;9.37;6.53;;;14.80;99.90;;;;;;5047121;28;20232;-36
2023/05/11 01:21:00;;;;;;;8.47;6.23;;;14.70;99.90;;;;;;5050240;28;20350;-36
2023/05/11 01:23:39;;;;;;;9.80;6.50;;;14.80;99.90;;;;;;5045601;28;20212;-36
2023/05/11 01:26:10;;;;;;;12.17;5.90;;;14.80;99.90;;;;;;5050447;28;20203;-36
2023/05/11 01:29:08;;;;;;;8.90;5.50;;;14.80;99.90;;;;;;5048487;28;20208;-36
2023/05/11 01:31:40;;;;;;;9.27;5.50;;;14.80;99.90;;;;;;5045872;28;20706;-36
2023/05/11 01:34:18;;;;;;;9.97;6.00;;;14.80;99.90;;;;;;5046470;28;20714;-36
2023/05/11 01:37:01;;;;;;;8.00;5.67;;;14.80;99.90;;;;;;5047366;28;20219;-36
2023/05/11 01:39:38;;;;;;;8.30;5.80;;;14.80;99.90;;;;;;5046638;28;20210;-36
2023/05/11 01:42:14;;;;;;;8.67;5.23;;;14.80;99.90;;;;;;5047370;28;20199;-36
2023/05/11 01:44:44;;;;;;;8.02;5.47;;;14.80;99.90;;;;;;5045588;28;20198;-36
2023/05/11 01:47:15;;;;;;;8.35;5.47;;;14.80;99.90;;;;;;5046082;28;20411;-36
2023/05/11 01:49:47;;;;;;;9.65;6.40;;;14.70;99.90;;;;;;5045590;28;20566;-36
2023/05/11 01:52:16;;;;;;;8.80;5.83;;;14.80;99.90;;;;;;5045355;28;20207;-36
2023/05/11 01:54:51;;;;;;;8.67;5.80;;;14.70;99.90;;;;;;5044910;28;20242;-36
2023/05/11 01:57:21;;;;;;;9.20;5.43;;;14.80;99.90;;;;;;5045572;28;20345;-36
2023/05/11 01:59:52;;;;;;;8.83;6.00;;;14.70;99.90;;;;;;5028748;28;20208;-36
2023/05/11 02:02:23;;;;;;;12.30;6.57;;;14.70;99.90;;;;;;5044900;28;20297;-36
2023/05/11 02:04:51;;;;;;;8.15;5.20;;;14.70;99.90;;;;;;5045311;28;21060;-36
2023/05/11 02:07:21;;;;;;;9.20;5.47;;;14.70;99.90;;;;;;5046587;28;20212;-36
2023/05/11 02:09:52;;;;;;;9.43;5.83;;;14.70;99.90;;;;;;5044979;28;20287;-37
2023/05/11 02:12:21;;;;;;;7.90;5.77;;;14.70;99.90;;;;;;5046193;28;20296;-36
2023/05/11 02:14:50;;;;;;;6.93;5.40;;;14.70;99.90;;;;;;5044331;28;20200;-36
2023/05/11 02:17:23;;;;;;;10.20;5.83;;;14.70;99.90;;;;;;5044778;28;20285;-36
2023/05/11 02:19:57;;;;;;;8.33;5.37;;;14.70;99.90;;;;;;5044780;28;20354;-36
2023/05/11 02:22:28;;;;;;;7.97;5.13;;;14.70;99.90;;;;;;5044505;28;20598;-36
2023/05/11 02:24:58;;;;;;;7.53;5.33;;;14.70;99.90;;;;;;5044583;28;20219;-37
2023/05/11 02:27:27;;;;;;;8.93;5.70;;;14.70;99.90;;;;;;5028256;28;20295;-36
2023/05/11 02:29:55;;;;;;;10.40;5.97;;;14.70;99.90;;;;;;5036802;28;20205;-36
2023/05/11 02:32:27;;;;;;;10.75;5.90;;;14.70;99.90;;;;;;5008702;28;20296;-37
2023/05/11 02:35:06;;;;;;;12.57;6.67;;;14.70;99.90;;;;;;5024449;28;20209;-36
2023/05/11 02:37:37;;;;;;;10.63;6.10;;;14.70;99.90;;;;;;5024654;28;20593;-37
2023/05/11 02:40:16;;;;;;;8.57;5.67;;;14.70;99.90;;;;;;5026232;28;20232;-37
2023/05/11 02:42:55;;;;;;;9.83;6.50;;;14.70;99.90;;;;;;5024688;28;20678;-37
2023/05/11 02:45:26;;;;;;;10.10;6.37;;;14.70;99.90;;;;;;5024706;28;20585;-36
2023/05/11 02:47:55;;;;;;;11.77;5.43;;;14.70;99.90;;;;;;5024775;28;20218;-37
2023/05/11 02:50:29;;;;;;;10.10;6.00;;;14.70;99.90;;;;;;5024571;28;20275;-36
2023/05/11 02:53:06;;;;;;;9.27;6.03;;;14.70;99.90;;;;;;5024199;28;20585;-36
2023/05/11 02:55:35;;;;;;;8.87;5.70;;;14.70;99.90;;;;;;5036717;28;20280;-37
2023/05/11 02:58:05;;;;;;;9.18;5.95;;;14.60;99.90;;;;;;5043783;28;20323;-36
2023/05/11 03:00:34;;;;;;;8.70;5.60;;;14.60;99.90;;;;;;5045312;28;20212;-36
2023/05/11 03:03:05;;;;;;;7.90;5.73;;;14.60;99.90;;;;;;5043223;28;20792;-37
2023/05/11 03:05:35;;;;;;;9.50;6.40;;;14.60;99.90;;;;;;5043835;28;20209;-37
2023/05/11 03:08:05;;;;;;;10.10;6.03;;;14.60;99.90;;;;;;5045681;28;20211;-37
2023/05/11 03:10:33;;;;;;;10.93;6.37;;;14.60;99.90;;;;;;5044334;28;20306;-37
2023/05/11 03:13:04;;;;;;;10.47;6.20;;;14.60;99.90;;;;;;5045322;28;20282;-38
2023/05/11 03:15:35;;;;;;;11.83;6.53;;;14.60;99.90;;;;;;5028144;28;20220;-38
2023/05/11 03:18:09;;;;;;;8.93;6.10;;;14.60;99.90;;;;;;5045596;28;20227;-37
2023/05/11 03:20:40;;;;;;;10.90;6.00;;;14.60;99.90;;;;;;5042987;28;20302;-38
2023/05/11 03:23:10;;;;;;;12.27;5.97;;;14.60;99.90;;;;;;5045705;28;20192;-37
2023/05/11 03:25:42;;;;;;;12.90;6.30;;;14.60;99.90;;;;;;5043406;28;20204;-37
2023/05/11 03:28:13;;;;;;;10.23;6.30;;;14.50;99.90;;;;;;5043440;28;20323;-37
2023/05/11 03:30:44;;;;;;;10.77;5.90;;;14.50;99.90;;;;;;5045021;28;20290;-37
2023/05/11 03:33:12;;;;;;;15.03;6.67;;;14.60;99.90;;;;;;5045310;28;20207;-37
2023/05/11 03:35:43;;;;;;;13.53;6.97;;;14.60;99.90;;;;;;5027412;28;20220;-37
2023/05/11 03:38:14;;;;;;;10.03;6.30;;;14.60;99.90;;;;;;5042766;28;20686;-37
2023/05/11 03:40:43;;;;;;;12.40;6.50;;;14.60;99.90;;;;;;5044764;28;20246;-37
2023/05/11 03:43:13;;;;;;;8.85;5.97;;;14.60;99.90;;;;;;5026847;28;20223;-37
2023/05/11 03:45:44;;;;;;;10.73;6.65;;;14.60;99.90;;;;;;5043240;28;20782;-35
2023/05/11 03:48:15;;;;;;;9.65;6.68;;;14.60;99.90;;;;;;5042971;28;20678;-35
2023/05/11 03:50:48;;;;;;;13.02;7.72;;;14.60;99.90;;;;;;5044519;28;20214;-35
2023/05/11 03:53:17;;;;;;;11.07;6.73;;;14.60;99.90;;;;;;5044247;28;20200;-35
2023/05/11 03:55:45;;;;;;;9.70;7.47;;;14.50;99.90;;;;;;5027857;28;20224;-35
2023/05/11 03:58:15;;;;;;;15.10;7.60;;;14.60;99.90;;;;;;5023184;28;20241;-35
2023/05/11 04:00:42;;;;;;;15.93;9.27;;;14.60;99.90;;;;;;5024966;28;20193;-35
2023/05/11 04:03:10;;;;;;;16.37;8.67;;;14.60;99.90;;;;;;5022861;28;20209;-35
2023/05/11 04:05:37;;;;;;;15.97;8.20;;;14.60;99.90;;;;;;5023127;28;20270;-35
2023/05/11 04:08:08;;;;;;;16.27;9.15;;;14.50;99.90;;;;;;5024912;28;20228;-35
2023/05/11 04:10:37;;;;;;;15.98;9.40;;;14.50;99.90;;;;;;5023215;28;20258;-35
2023/05/11 04:13:06;;;;;;;17.33;9.90;;;14.50;99.90;;;;;;5023609;28;20215;-35
2023/05/11 04:15:34;;;;;;;22.67;12.00;;;14.50;99.90;;;;;;5022896;28;20675;-35
2023/05/11 04:18:04;;;;;;;20.80;10.82;;;14.50;99.90;;;;;;5023325;28;20205;-35
2023/05/11 04:20:31;;;;;;;21.07;11.83;;;14.40;99.90;;;;;;5022931;28;20343;-37
2023/05/11 04:22:58;;;;;;;24.00;13.67;;;14.40;99.90;;;;;;5024714;28;20637;-37
2023/05/11 04:25:26;;;;;;;25.43;12.57;;;14.40;99.90;;;;;;5039443;28;20196;-37
2023/05/11 04:27:55;;;;;;;18.20;12.03;;;14.40;99.90;;;;;;5039293;28;20209;-36
2023/05/11 04:30:23;;;;;;;19.02;12.55;;;14.30;99.90;;;;;;5055446;28;20251;-36
2023/05/11 04:32:52;;;;;;;22.10;12.50;;;14.30;99.90;;;;;;5023283;28;20238;-36
2023/05/11 04:35:23;;;;;;;23.83;13.03;;;14.30;99.90;;;;;;5024379;28;20197;-36
2023/05/11 04:37:50;;;;;;;22.70;13.17;;;14.30;99.90;;;;;;5024343;28;20232;-36
2023/05/11 04:40:25;;;;;;;22.57;12.43;;;14.30;99.90;;;;;;5038964;28;20231;-36
2023/05/11 04:42:53;;;;;;;22.43;13.07;;;14.30;99.90;;;;;;5024310;28;20758;-36
2023/05/11 04:45:20;;;;;;;23.93;13.40;;;14.30;99.90;;;;;;5042061;28;20223;-36
2023/05/11 04:47:54;;;;;;;18.73;12.87;;;14.30;99.90;;;;;;5044040;28;20436;-36
2023/05/11 04:50:21;;;;;;;22.05;12.40;;;14.30;99.90;;;;;;5043861;28;20227;-36
2023/05/11 04:52:51;;;;;;;21.85;12.18;;;14.30;99.90;;;;;;5042534;28;20584;-36
2023/05/11 04:55:18;;;;;;;21.80;13.20;;;14.20;99.90;;;;;;5043446;28;20300;-36
2023/05/11 04:57:45;;;;;;;21.20;11.75;;;14.20;99.90;;;;;;5043671;28;20340;-36
2023/05/11 05:00:13;;;;;;;19.43;11.97;;;14.30;99.90;;;;;;5042306;28;20300;-36
2023/05/11 05:02:40;;;;;;;23.33;11.98;;;14.20;99.90;;;;;;5036379;28;20208;-36
2023/05/11 05:05:07;;;;;;;18.43;11.63;;;14.20;99.90;;;;;;5024522;28;20236;-36
2023/05/11 05:07:37;;;;;;;17.42;11.43;;;14.20;99.90;;;;;;5042173;28;20208;-36
2023/05/11 05:10:07;;;;;;;22.03;11.50;;;14.20;99.90;;;;;;5026147;28;20236;-36
2023/05/11 05:12:37;;;;;;;19.63;10.93;;;14.20;99.90;;;;;;5027674;28;20211;-36
2023/05/11 05:15:05;;;;;;;19.33;11.77;;;14.20;99.90;;;;;;5027796;28;20249;-36
2023/05/11 05:17:32;;;;;;;17.63;11.25;;;14.20;99.90;;;;;;5043764;28;20248;-36
2023/05/11 05:20:04;;;;;;;17.27;10.80;;;14.20;99.90;;;;;;5026434;28;20236;-36
2023/05/11 05:22:35;;;;;;;17.83;10.93;;;14.20;99.90;;;;;;5042419;28;20221;-36
2023/05/11 05:25:02;;;;;;;21.60;11.53;;;14.20;99.90;;;;;;5027771;28;20228;-36
2023/05/11 05:27:32;;;;;;;17.60;10.63;;;14.20;99.90;;;;;;5027195;28;20566;-36
2023/05/11 05:30:01;;;;;;;15.52;9.95;;;14.20;99.90;;;;;;5026066;28;20248;-36
2023/05/11 05:32:30;;;;;;;16.25;9.90;;;14.20;99.90;;;;;;5025567;28;20208;-36
2023/05/11 05:34:57;;;;;;;17.50;9.60;;;14.20;99.90;;;;;;5025515;28;20205;-36
2023/05/11 05:37:24;;;;;;;19.83;9.45;;;14.20;99.90;;;;;;5025840;28;20335;-36
2023/05/11 05:39:54;;;;;;;14.47;9.20;;;14.20;99.90;;;;;;5027238;28;20307;-35
2023/05/11 05:42:21;;;;;;;17.90;8.80;;;14.20;99.90;;;;;;5027374;28;20709;-36
2023/05/11 05:44:51;;;;;;;22.70;9.37;;;14.20;99.90;;;;;;5027676;28;20216;-36
2023/05/11 05:47:20;;;;;;;15.20;8.33;;;14.20;99.90;;;;;;5025822;28;20217;-36
2023/05/11 05:49:47;;;;;;;16.07;8.77;;;14.20;99.90;;;;;;5027160;28;20286;-35
2023/05/11 05:52:17;;;;;;;13.37;8.70;;;14.20;99.90;;;;;;5027295;28;20312;-35
2023/05/11 05:54:44;;;;;;;12.90;9.17;;;14.20;99.90;;;;;;5032919;28;20219;-36
2023/05/11 05:57:11;;;;;;;14.27;8.73;;;14.20;99.90;;;;;;5045102;28;20243;-36
2023/05/11 05:59:41;;;;;;;12.50;8.00;;;14.20;99.90;;;;;;5045022;28;20193;-36
2023/05/11 06:02:08;;;;;;;15.27;8.00;;;14.30;99.90;;;;;;5044815;28;20199;-36
2023/05/11 06:04:38;;;;;;;13.48;7.93;;;14.30;99.90;;;;;;5045002;28;20204;-36
2023/05/11 06:07:05;;;;;;;16.17;8.07;;;14.30;99.90;;;;;;5045190;28;20277;-36
2023/05/11 06:09:32;;;;;;;15.37;6.83;;;14.30;99.90;;;;;;5046157;28;20283;-36
2023/05/11 06:11:59;;;;;;;12.40;7.53;;;14.30;99.90;;;;;;5028068;28;20305;-36
2023/05/11 06:14:27;;;;;;;15.03;7.27;;;14.40;99.90;;;;;;5026334;28;20233;-36
2023/05/11 06:16:56;;;;;;;12.60;7.13;;;14.40;99.90;;;;;;5008093;28;20256;-36
2023/05/11 06:19:25;;;;;;;18.83;7.33;;;14.40;99.90;;;;;;5026664;28;20193;-36
2023/05/11 06:21:57;;;;;;;10.63;6.43;;;14.40;99.90;;;;;;5026698;28;20223;-36
2023/05/11 06:24:29;;;;;;;14.32;6.93;;;14.40;99.90;;;;;;5026422;28;20201;-36
2023/05/11 06:26:59;;;;;;;13.60;6.63;;;14.40;99.90;;;;;;5025093;28;20237;-35
2023/05/11 06:29:29;;;;;;;16.20;6.90;;;14.50;99.90;;;;;;5008467;28;20208;-37
2023/05/11 06:31:57;;;;;;;12.67;6.37;;;14.50;99.90;;;;;;5026041;28;20292;-36
2023/05/11 06:34:24;;;;;;;14.03;6.03;;;14.50;99.90;;;;;;5026114;28;20216;-36
2023/05/11 06:36:51;;;;;;;12.73;6.07;;;14.50;99.90;;;;;;5024335;28;20220;-36
2023/05/11 06:39:19;;;;;;;15.13;6.50;;;14.50;99.90;;;;;;5024781;28;20229;-36
2023/05/11 06:41:51;;;;;;;16.10;6.80;;;14.60;99.90;;;;;;5025941;28;20197;-36
2023/05/11 06:44:28;;;;;;;11.97;6.80;;;14.60;99.90;;;;;;5025874;28;20757;-36
2023/05/11 06:46:55;;;;;;;15.75;6.07;;;14.60;99.90;;;;;;5024327;28;20209;-36
2023/05/11 06:49:24;;;;;;;13.73;6.20;;;14.60;99.90;;;;;;5025657;28;20295;-36
2023/05/11 06:51:51;;;;;;;11.93;6.33;;;14.60;99.90;;;;;;5026253;28;20250;-36
2023/05/11 06:54:23;;;;;;;15.40;5.90;;;14.70;99.90;;;;;;5015926;28;20231;-35
2023/05/11 06:56:53;;;;;;;11.53;5.83;;;14.70;99.90;;;;;;5023786;28;20241;-35
2023/05/11 06:59:20;;;;;;;11.73;6.25;;;14.70;99.90;;;;;;5023956;28;20567;-36
2023/05/11 07:01:47;;;;;;;10.37;5.93;;;14.70;99.90;;;;;;5025381;28;20270;-36
2023/05/11 07:04:15;;;;;;;10.33;5.60;;;14.80;99.90;;;;;;5025397;28;20220;-35
2023/05/11 07:06:44;;;;;;;13.30;6.67;;;14.80;99.90;;;;;;5024070;28;20605;-35
2023/05/11 07:09:14;;;;;;;12.50;6.03;;;14.80;99.90;;;;;;5024002;28;20205;-35
2023/05/11 07:11:43;;;;;;;13.03;6.43;;;14.90;99.90;;;;;;5023788;28;20201;-36
2023/05/11 07:14:11;;;;;;;11.50;5.80;;;14.90;99.90;;;;;;5025264;28;20193;-35
2023/05/11 07:16:40;;;;;;;14.57;6.43;;;14.90;99.90;;;;;;5023918;28;20271;-35
2023/05/11 07:19:09;;;;;;;10.57;5.63;;;15.00;99.90;;;;;;5023791;28;20727;-35
2023/05/11 07:21:39;;;;;;;12.07;6.77;;;15.00;99.90;;;;;;5025339;28;20249;-35
2023/05/11 07:24:06;;;;;;;11.93;6.67;;;15.10;99.90;;;;;;5023500;28;20199;-35
2023/05/11 07:26:34;;;;;;;12.67;6.50;;;15.10;99.90;;;;;;5023253;28;20275;-35
2023/05/11 07:29:01;;;;;;;10.50;5.73;;;15.10;99.90;;;;;;5022446;28;20216;-35
2023/05/11 07:31:29;;;;;;;12.00;5.13;;;15.10;99.90;;;;;;5023419;28;20232;-35
2023/05/11 07:34:00;;;;;;;9.73;6.17;;;15.20;99.90;;;;;;5023627;28;20213;-35
2023/05/11 07:36:30;;;;;;;10.85;6.28;;;15.20;99.90;;;;;;5024712;28;20233;-35
2023/05/11 07:38:58;;;;;;;11.68;5.90;;;15.20;99.90;;;;;;5023626;28;20282;-35
2023/05/11 07:41:26;;;;;;;10.97;5.10;;;15.30;99.90;;;;;;5023533;28;20220;-35
2023/05/11 07:43:54;;;;;;;11.30;5.57;;;15.30;99.90;;;;;;5024813;28;20252;-35
2023/05/11 07:46:23;;;;;;;15.77;6.60;;;15.30;99.90;;;;;;5024883;28;20236;-35
2023/05/11 07:48:53;;;;;;;16.70;6.43;;;15.40;99.90;;;;;;5024665;28;20196;-35
2023/05/11 07:51:43;;;;;;;10.77;4.97;;;15.40;99.90;;;;;;5023134;28;20644;-35
2023/05/11 07:54:10;;;;;;;10.67;4.83;;;15.50;99.90;;;;;;5030200;28;20339;-35
2023/05/11 07:56:42;;;;;;;9.70;4.50;;;15.50;99.90;;;;;;5024811;28;20236;-35
2023/05/11 07:59:11;;;;;;;9.23;4.30;;;15.50;99.90;;;;;;5022977;28;20213;-35
2023/05/11 08:01:38;;;;;;;9.60;4.63;;;15.50;99.90;;;;;;5039990;28;20217;-35
2023/05/11 08:04:10;;;;;;;12.60;4.47;;;15.50;99.90;;;;;;5023130;28;20219;-35
2023/05/11 08:06:43;;;;;;;9.00;3.67;;;15.50;99.90;;;;;;5024714;28;20303;-35
2023/05/11 08:09:14;;;;;;;8.40;3.63;;;15.50;99.90;;;;;;5024381;28;20861;-35
2023/05/11 08:11:43;;;;;;;9.10;4.13;;;15.50;99.90;;;;;;5006551;28;20295;-35
2023/05/11 08:14:16;;;;;;;6.70;3.87;;;15.50;99.90;;;;;;5022970;28;20687;-35
2023/05/11 08:16:43;;;;;;;9.35;4.10;;;15.60;99.90;;;;;;5022658;28;20266;-35
2023/05/11 08:19:13;;;;;;;11.27;4.55;;;15.60;99.90;;;;;;5024771;28;20588;-35
2023/05/11 08:21:40;;;;;;;8.23;3.93;;;15.60;99.90;;;;;;5024428;28;20192;-35
2023/05/11 08:24:10;;;;;;;8.40;4.47;;;15.60;99.90;;;;;;5022834;28;20296;-35
2023/05/11 08:26:40;;;;;;;7.82;3.63;;;15.60;99.90;;;;;;5023809;28;20237;-35
2023/05/11 08:29:11;;;;;;;5.97;3.58;;;15.70;99.90;;;;;;5022626;28;20216;-35
2023/05/11 08:31:39;;;;;;;8.63;4.07;;;15.70;99.90;;;;;;5022827;28;20795;-35
2023/05/11 08:34:09;;;;;;;8.15;3.92;;;15.70;99.90;;;;;;5022896;28;20303;-35
2023/05/11 08:36:45;;;;;;;5.25;3.60;;;15.80;99.90;;;;;;5022862;28;20226;-35
2023/05/11 08:39:13;;;;;;;8.25;3.80;;;15.80;99.90;;;;;;5022653;28;20212;-35
2023/05/11 08:42:01;;;;;;;8.43;3.80;;;15.90;99.90;;;;;;5026204;28;20211;-35
2023/05/11 08:44:37;;;;;;;9.82;3.65;;;15.90;99.90;;;;;;5026509;28;20204;-35
2023/05/11 08:47:12;;;;;;;7.95;3.72;;;16.00;99.90;;;;;;5027765;28;20296;-35
2023/05/11 08:49:42;;;;;;;6.13;3.67;;;16.10;99.90;;;;;;5027910;28;20201;-35
2023/05/11 08:52:12;;;;;;;10.27;3.97;;;16.10;99.90;;;;;;5029497;28;20212;-35
2023/05/11 08:54:44;;;;;;;9.93;3.88;;;16.20;99.90;;;;;;5047801;28;20307;-35
2023/05/11 08:57:16;;;;;;;6.47;3.50;;;16.30;99.90;;;;;;5047801;28;20239;-35
2023/05/11 08:59:46;;;;;;;8.70;3.93;;;16.30;99.90;;;;;;5046117;28;20623;-35
2023/05/11 09:02:16;;;;;;;9.17;3.23;;;16.30;99.90;;;;;;5011501;28;20837;-35
2023/05/11 09:04:51;;;;;;;10.55;3.90;;;16.40;99.90;;;;;;5026287;28;20303;-35
2023/05/11 09:07:20;;;;;;;13.87;4.47;;;16.40;99.90;;;;;;5025829;28;20355;-35
2023/05/11 09:09:50;;;;;;;9.57;4.43;;;16.40;99.90;;;;;;5027932;28;20567;-35
2023/05/11 09:12:19;;;;;;;10.90;4.10;;;16.40;99.90;;;;;;5027626;28;20235;-35
2023/05/11 09:14:48;;;;;;;9.53;3.93;;;16.50;99.90;;;;;;5026241;28;20213;-35
2023/05/11 09:17:16;;;;;;;10.05;4.07;;;16.50;99.90;;;;;;5010344;28;20257;-35
2023/05/11 09:20:00;;;;;;;7.93;3.92;;;16.50;99.90;;;;;;5027578;28;20239;-35
2023/05/11 09:22:28;;;;;;;9.73;4.03;;;16.60;99.90;;;;;;5009850;28;20236;-35
2023/05/11 09:25:04;;;;;;;8.75;4.30;;;16.60;99.90;;;;;;5027478;28;20263;-35
2023/05/11 09:27:31;;;;;;;8.38;3.97;;;16.70;99.90;;;;;;5027425;28;20558;-35
2023/05/11 09:30:14;;;;;;;8.27;3.72;;;16.70;99.90;;;;;;5009892;28;20228;-35
2023/05/11 09:32:49;;;;;;;9.13;3.70;;;16.80;99.90;;;;;;5027127;28;20201;-35
2023/05/11 09:35:29;;;;;;;9.85;3.55;;;16.80;99.90;;;;;;5026420;28;20854;-35
2023/05/11 09:38:05;;;;;;;7.22;3.70;;;16.90;99.90;;;;;;5026906;28;20327;-35
2023/05/11 09:40:37;;;;;;;8.43;3.17;;;16.90;99.90;;;;;;5025166;28;20197;-35
2023/05/11 09:43:18;;;;;;;5.75;3.00;;;17.00;99.90;;;;;;5027090;28;20208;-35
2023/05/11 09:45:51;;;;;;;7.88;3.97;;;17.10;99.90;;;;;;5026691;28;20335;-35
2023/05/11 09:48:21;;;;;;;7.88;3.85;;;17.10;99.90;;;;;;5026946;28;20319;-36
2023/05/11 09:50:51;;;;;;;8.93;3.35;;;17.20;99.90;;;;;;5025677;28;20236;-35
2023/05/11 09:53:19;;;;;;;9.60;3.83;;;17.20;99.90;;;;;;5037683;28;20228;-35
2023/05/11 09:55:56;;;;;;;8.65;3.60;;;17.30;99.90;;;;;;5046855;28;20242;-35
2023/05/11 09:58:34;;;;;;;7.40;3.78;;;17.30;99.90;;;;;;5044992;28;20232;-35
2023/05/11 10:01:06;;;;;;;9.95;3.85;;;17.40;99.90;;;;;;5046282;28;20199;-35
2023/05/11 10:03:53;;;;;;;7.97;3.20;;;17.40;99.90;;;;;;5046306;28;21203;-35
2023/05/11 10:06:51;;;;;;;11.27;3.67;;;17.40;99.90;;;;;;5044751;28;20205;-35
2023/05/11 10:09:24;;;;;;;8.25;3.58;;;17.40;99.90;;;;;;5045218;28;20274;-35
2023/05/11 10:11:55;;;;;;;4.35;3.20;;;17.50;99.90;;;;;;5044078;28;20204;-35
2023/05/11 10:14:27;;;;;;;7.40;3.22;;;17.50;99.90;;;;;;5044331;28;20216;-35
2023/05/11 10:16:59;;;;;;;5.80;3.00;;;17.50;99.90;;;;;;5045923;28;20779;-35
2023/05/11 10:19:30;;;;;;;8.07;3.53;;;17.50;99.90;;;;;;5028611;28;20276;-35
2023/05/11 10:21:59;;;;;;;5.32;2.90;;;17.60;99.90;;;;;;5045714;28;20270;-35
2023/05/11 10:24:26;;;;;;;4.57;2.80;;;17.60;99.90;;;;;;5045741;28;20274;-35
2023/05/11 10:26:56;;;;;;;6.35;3.10;;;17.70;99.90;;;;;;5045287;28;20204;-35
2023/05/11 10:29:24;;;;;;;5.95;3.08;;;17.70;99.90;;;;;;5043944;28;20209;-35
2023/05/11 10:31:56;;;;;;;7.05;3.38;;;17.80;99.90;;;;;;5028025;28;20213;-35
2023/05/11 10:34:28;;;;;;;9.05;3.75;;;17.80;99.90;;;;;;5043828;28;20749;-35
2023/05/11 10:36:58;;;;;;;6.35;2.85;;;17.80;99.90;;;;;;5045446;28;20208;-35
2023/05/11 10:39:30;;;;;;;8.32;3.35;;;17.90;99.90;;;;;;5043971;28;20725;-35
2023/05/11 10:42:06;;;;;;;7.15;3.10;;;17.90;99.90;;;;;;5043001;28;20481;-35
2023/05/11 10:44:52;;;;;;;9.13;3.67;;;18.00;99.90;;;;;;5045648;28;20200;-35
2023/05/11 10:48:10;;;;;;;7.93;3.78;;;18.00;99.90;;;;;;5045184;28;20212;-35
2023/05/11 10:50:40;;;;;;;10.35;3.75;;;18.00;99.90;;;;;;5061670;28;20208;-35
2023/05/11 10:53:33;;;;;;;6.00;3.63;;;18.10;99.90;;;;;;5045418;28;20208;-35
2023/05/11 10:56:35;;;;;;;8.48;4.03;;;18.10;99.90;;;;;;5048921;28;20216;-35
2023/05/11 10:59:37;;;;;;;5.95;3.50;;;18.20;99.90;;;;;;5042562;28;20231;-35
2023/05/11 11:02:07;;;;;;;8.35;3.53;;;18.30;99.90;;;;;;5044886;28;20246;-35
2023/05/11 11:04:45;;;;;;;7.65;3.38;;;18.30;99.90;;;;;;5043422;28;20238;-35
2023/05/11 11:07:17;;;;;;;11.75;4.40;;;18.40;99.90;;;;;;5043399;28;20207;-35
2023/05/11 11:09:51;;;;;;;9.50;4.18;;;18.40;99.90;;;;;;5043273;28;20208;-35
2023/05/11 11:12:19;;;;;;;6.55;4.03;;;18.40;99.90;;;;;;5043208;28;20230;-35
2023/05/11 11:15:03;;;;;;;6.47;3.42;;;18.40;99.90;;;;;;5043292;28;20215;-35
2023/05/11 11:17:35;;;;;;;8.38;3.95;;;18.40;99.90;;;;;;5042823;28;20263;-35
2023/05/11 11:20:08;;;;;;;7.85;3.50;;;18.40;99.90;;;;;;5043478;28;20693;-34
2023/05/11 11:22:40;;;;;;;10.10;3.53;;;18.40;99.90;;;;;;5023261;28;20304;-35
2023/05/11 11:25:09;;;;;;;7.88;4.18;;;18.40;99.90;;;;;;5023371;28;20656;-35
2023/05/11 11:27:39;;;;;;;5.68;3.50;;;18.40;99.90;;;;;;5024996;28;20225;-35
2023/05/11 11:30:23;;;;;;;6.45;3.20;;;18.30;99.90;;;;;;5024720;28;20274;-35
2023/05/11 11:33:09;;;;;;;7.00;3.45;;;18.30;99.90;;;;;;5023408;28;21024;-35
2023/05/11 11:35:42;;;;;;;7.32;3.55;;;18.20;99.90;;;;;;5039858;28;20211;-35
2023/05/11 11:38:13;;;;;;;8.13;3.53;;;18.20;99.90;;;;;;5024805;28;20714;-32
2023/05/11 11:40:53;;;;;;;6.78;3.25;;;18.10;99.90;;;;;;5024576;28;20197;-31
2023/05/11 11:43:25;;;;;;;8.15;3.40;;;18.10;99.90;;;;;;5038930;28;20315;-31
2023/05/11 11:45:58;;;;;;;7.75;3.40;;;18.10;99.90;;;;;;5024953;28;20283;-31
2023/05/11 11:48:39;;;;;;;8.10;3.17;;;18.10;99.90;;;;;;5024926;28;20213;-31
2023/05/11 11:51:13;;;;;;;7.57;3.20;;;18.10;99.90;;;;;;5039220;28;20303;-31
2023/05/11 11:53:40;;;;;;;6.95;3.08;;;18.20;99.90;;;;;;5042685;28;20212;-32
2023/05/11 11:56:12;;;;;;;8.77;3.40;;;18.20;99.90;;;;;;5043709;28;20654;-31
2023/05/11 11:58:40;;;;;;;11.07;4.22;;;18.30;99.90;;;;;;5042459;28;20597;-31
2023/05/11 12:01:21;;;;;;;8.50;4.25;;;18.30;99.90;;;;;;5042821;28;20200;-31
2023/05/11 12:04:18;;;;;;;8.00;3.58;;;18.40;99.90;;;;;;5043167;28;20651;-31
2023/05/11 12:06:56;;;;;;;5.40;3.63;;;18.50;99.90;;;;;;5044521;28;20207;-31
2023/05/11 12:09:27;;;;;;;8.23;3.28;;;18.50;99.90;;;;;;5043788;28;20299;-31
2023/05/11 12:11:55;;;;;;;7.38;3.50;;;18.50;99.90;;;;;;5042975;28;20208;-31
2023/05/11 12:14:23;;;;;;;7.35;3.53;;;18.60;99.90;;;;;;5044276;28;20722;-31
2023/05/11 12:17:26;;;;;;;8.43;3.60;;;18.60;99.90;;;;;;5043510;28;20300;-31
2023/05/11 12:20:10;;;;;;;7.80;3.42;;;18.70;99.90;;;;;;5046833;28;20212;-32
2023/05/11 12:22:40;;;;;;;7.93;3.47;;;18.70;99.90;;;;;;5042451;28;20694;-31
2023/05/11 12:25:10;;;;;;;6.05;3.25;;;18.80;99.90;;;;;;5041465;28;20220;-31
2023/05/11 12:27:53;;;;;;;6.72;3.35;;;18.80;99.90;;;;;;5042580;28;20303;-31
2023/05/11 12:30:23;;;;;;;9.40;3.75;;;18.90;99.90;;;;;;5044507;28;20940;-31
2023/05/11 12:32:55;;;;;;;7.60;3.92;;;18.90;99.90;;;;;;5044211;28;20294;-31
2023/05/11 12:35:31;;;;;;;7.15;3.70;;;18.90;99.90;;;;;;5042528;28;20776;-31
2023/05/11 12:38:02;;;;;;;8.98;4.00;;;19.00;99.90;;;;;;5043926;28;20752;-31
2023/05/11 12:40:30;;;;;;;5.60;2.97;;;19.00;99.90;;;;;;5043989;28;20208;-32
2023/05/11 12:43:00;;;;;;;8.48;3.47;;;19.00;99.90;;;;;;5043108;28;20231;-31
2023/05/11 12:45:30;;;;;;;6.72;3.47;;;19.00;99.90;;;;;;5025925;28;20230;-31
2023/05/11 12:47:59;;;;;;;10.18;3.80;;;19.00;99.90;;;;;;5042279;28;20438;-31
2023/05/11 12:50:31;;;;;;;9.95;4.28;;;19.10;99.90;;;;;;5043683;28;20212;-31
2023/05/11 12:53:15;;;;;;;7.20;3.03;;;19.10;99.90;;;;;;5043433;28;20318;-31
2023/05/11 12:55:43;;;;;;;4.97;3.40;;;19.20;99.90;;;;;;5042420;28;20567;-31
2023/05/11 12:58:18;;;;;;;8.00;3.60;;;19.20;99.90;;;;;;5040979;28;20331;-31
2023/05/11 13:00:57;;;;;;;6.47;3.00;;;19.20;99.90;;;;;;5044085;28;20568;-31
2023/05/11 13:03:27;;;;;;;6.53;3.15;;;19.20;99.90;;;;;;5042578;28;20525;-31